Time;durP1;ratioP1;P1;durP2;ratioP2;P2;SDS_P1;SDS_P2;PMS_P1;PMS_P2;Temp;Humidity;BMP_temperature;BMP_pressure;BME280_temperature;BME280_humidity;BME280_pressure;Samples;Min_cycle;Max_cycle;Signal;HPM_P1;HPM_P2
2022/04/13 00:01:13;;;;;;;1999.90;999.90;;;16.00;99.90;;;;;;5056513;28;20188;-68
2022/04/13 00:03:39;;;;;;;1999.90;999.90;;;15.90;99.90;;;;;;5066200;28;20185;-68
2022/04/13 00:06:04;;;;;;;1999.90;999.90;;;15.90;99.90;;;;;;5075408;28;20188;-67
2022/04/13 00:08:31;;;;;;;1999.90;999.90;;;15.90;99.90;;;;;;5071020;28;20211;-67
2022/04/13 00:10:57;;;;;;;1999.90;999.90;;;15.80;99.90;;;;;;5075704;28;20176;-67
2022/04/13 00:13:22;;;;;;;1999.90;999.90;;;15.60;99.90;;;;;;5076567;28;20181;-67
2022/04/13 00:15:51;;;;;;;1999.90;999.90;;;15.60;99.90;;;;;;5076818;28;20632;-67
2022/04/13 00:18:16;;;;;;;1999.90;999.90;;;15.50;99.90;;;;;;5075274;28;20665;-67
2022/04/13 00:20:42;;;;;;;1999.90;999.90;;;15.50;99.90;;;;;;5075020;28;20192;-67
2022/04/13 00:23:08;;;;;;;1999.90;999.90;;;15.50;99.90;;;;;;5068547;28;20176;-67
2022/04/13 00:25:36;;;;;;;1999.90;999.90;;;15.50;99.90;;;;;;5075227;28;20713;-67
2022/04/13 00:28:01;;;;;;;1999.90;999.90;;;15.50;99.90;;;;;;5093290;28;20575;-67
2022/04/13 00:30:27;;;;;;;1999.90;999.90;;;15.40;99.90;;;;;;5058969;28;20180;-67
2022/04/13 00:32:53;;;;;;;1999.90;999.90;;;15.40;99.90;;;;;;5093381;28;20181;-67
2022/04/13 00:35:18;;;;;;;1999.90;999.90;;;15.30;99.90;;;;;;5075612;28;20529;-67
2022/04/13 00:37:47;;;;;;;1999.90;999.90;;;15.20;99.90;;;;;;5075189;28;20653;-67
2022/04/13 00:40:12;;;;;;;1999.90;999.90;;;15.20;99.90;;;;;;5041353;28;20267;-67
2022/04/13 00:42:38;;;;;;;1999.90;999.90;;;15.20;99.90;;;;;;5093178;28;20264;-67
2022/04/13 00:45:04;;;;;;;1999.90;999.90;;;15.20;99.90;;;;;;5040976;28;20181;-67
2022/04/13 00:47:30;;;;;;;1978.43;999.90;;;15.20;99.90;;;;;;5071733;28;20208;-67
2022/04/13 00:49:55;;;;;;;1999.90;999.90;;;15.10;99.90;;;;;;5058409;28;20232;-66
2022/04/13 00:52:25;;;;;;;1999.90;999.90;;;15.10;99.90;;;;;;5074199;28;20188;-67
2022/04/13 00:54:52;;;;;;;1999.90;999.90;;;15.10;99.90;;;;;;5092947;28;20704;-67
2022/04/13 00:57:20;;;;;;;1999.90;999.90;;;15.00;99.90;;;;;;5093047;28;20645;-67
2022/04/13 00:59:48;;;;;;;1999.90;999.90;;;15.00;99.90;;;;;;5093011;28;20192;-67
2022/04/13 01:02:16;;;;;;;1999.90;999.90;;;15.00;99.90;;;;;;5057500;28;20177;-67
2022/04/13 01:04:47;;;;;;;1999.90;999.90;;;15.00;99.90;;;;;;5093275;28;20172;-67
2022/04/13 01:07:13;;;;;;;1999.90;999.90;;;15.00;99.90;;;;;;5075808;28;20177;-68
2022/04/13 01:09:40;;;;;;;1999.90;999.90;;;14.90;99.90;;;;;;5092085;28;20568;-67
2022/04/13 01:12:06;;;;;;;1999.90;999.90;;;15.00;99.90;;;;;;5058336;28;20177;-67
2022/04/13 01:14:32;;;;;;;1999.90;999.90;;;15.00;99.90;;;;;;5074308;28;20173;-67
2022/04/13 01:16:59;;;;;;;1999.90;999.90;;;14.90;99.90;;;;;;5093083;28;20173;-67
2022/04/13 01:19:25;;;;;;;1999.90;999.90;;;14.90;99.90;;;;;;5091595;28;20184;-67
2022/04/13 01:21:58;;;;;;;1999.90;999.90;;;15.00;99.90;;;;;;5074686;28;20263;-67
2022/04/13 01:24:25;;;;;;;1999.90;999.90;;;14.90;99.90;;;;;;5061923;28;20212;-66
2022/04/13 01:26:51;;;;;;;1999.90;999.90;;;14.90;99.90;;;;;;5090025;28;20641;-66
2022/04/13 01:29:17;;;;;;;1999.90;999.90;;;14.90;99.90;;;;;;5093045;28;20211;-67
2022/04/13 01:31:44;;;;;;;1999.90;999.90;;;14.90;99.90;;;;;;5075743;28;20176;-67
2022/04/13 01:34:10;;;;;;;1999.90;999.90;;;14.90;99.90;;;;;;5091153;28;20647;-67
2022/04/13 01:36:37;;;;;;;1999.90;999.90;;;14.90;99.90;;;;;;5074640;28;20187;-67
2022/04/13 01:39:04;;;;;;;1999.90;999.90;;;14.90;99.90;;;;;;5073604;28;20176;-67
2022/04/13 01:41:30;;;;;;;1999.90;999.90;;;14.90;99.90;;;;;;5092568;28;20181;-67
2022/04/13 01:43:57;;;;;;;1999.90;999.90;;;14.90;99.90;;;;;;5074343;28;20207;-67
2022/04/13 01:46:23;;;;;;;1999.90;999.90;;;14.90;99.90;;;;;;5053898;28;20182;-67
2022/04/13 01:48:49;;;;;;;1999.90;999.90;;;14.90;99.90;;;;;;5089139;28;20220;-67
2022/04/13 01:51:17;;;;;;;1999.90;999.90;;;14.90;99.90;;;;;;5092653;28;20257;-67
2022/04/13 01:53:43;;;;;;;1999.90;999.90;;;14.90;99.90;;;;;;5074140;28;20230;-67
2022/04/13 01:56:09;;;;;;;1999.90;999.90;;;14.80;99.90;;;;;;5090475;28;20177;-67
2022/04/13 01:58:34;;;;;;;1999.90;999.90;;;14.80;99.90;;;;;;5040694;28;20288;-66
2022/04/13 02:01:00;;;;;;;1999.90;999.90;;;14.70;99.90;;;;;;5041031;28;20180;-66
2022/04/13 02:03:26;;;;;;;1999.90;999.90;;;14.60;99.90;;;;;;5057780;28;20191;-67
2022/04/13 02:05:53;;;;;;;1999.90;999.90;;;14.60;99.90;;;;;;5075559;28;20261;-67
2022/04/13 02:08:22;;;;;;;1466.38;999.90;;;14.50;99.90;;;;;;5078121;28;20580;-67
2022/04/13 02:10:48;;;;;;;1667.85;999.90;;;14.50;99.90;;;;;;5096617;28;20255;-67
2022/04/13 02:13:14;;;;;;;1804.70;999.90;;;14.50;99.90;;;;;;5061707;28;20187;-67
2022/04/13 02:15:41;;;;;;;1674.38;999.90;;;14.40;99.90;;;;;;5061612;28;20184;-67
2022/04/13 02:18:07;;;;;;;1740.82;999.90;;;14.30;99.90;;;;;;5077993;28;20643;-67
2022/04/13 02:20:33;;;;;;;1765.72;999.90;;;14.30;99.90;;;;;;5095180;28;20180;-67
2022/04/13 02:22:59;;;;;;;1825.93;999.90;;;14.20;99.90;;;;;;5085994;28;20186;-67
2022/04/13 02:25:24;;;;;;;1833.75;999.90;;;14.20;99.90;;;;;;5086955;28;20701;-67
2022/04/13 02:27:50;;;;;;;1865.25;999.90;;;14.10;99.90;;;;;;5060891;28;20228;-67
2022/04/13 02:30:16;;;;;;;1869.57;999.90;;;14.10;99.90;;;;;;5078238;28;20532;-67
2022/04/13 02:32:45;;;;;;;1861.45;999.90;;;14.00;99.90;;;;;;5075790;28;20693;-67
2022/04/13 02:35:12;;;;;;;1863.38;999.90;;;14.00;99.90;;;;;;5077906;28;20234;-68
2022/04/13 02:37:39;;;;;;;1827.38;999.90;;;13.90;99.90;;;;;;5095949;28;20192;-67
2022/04/13 02:40:08;;;;;;;1788.93;999.90;;;13.90;99.90;;;;;;5096075;28;20181;-67
2022/04/13 02:42:34;;;;;;;1733.50;999.90;;;13.90;99.90;;;;;;5095803;28;20252;-67
2022/04/13 02:45:00;;;;;;;1672.72;999.90;;;13.90;99.90;;;;;;5061280;28;20184;-66
2022/04/13 02:47:27;;;;;;;1654.35;999.90;;;13.90;99.90;;;;;;5077644;28;20173;-67
2022/04/13 02:49:55;;;;;;;1554.00;999.90;;;13.90;99.90;;;;;;5095866;28;20177;-67
2022/04/13 02:52:23;;;;;;;1476.63;999.90;;;13.80;99.90;;;;;;5095390;28;20284;-67
2022/04/13 02:54:49;;;;;;;1408.63;999.90;;;13.80;99.90;;;;;;5076078;28;20189;-67
2022/04/13 02:57:14;;;;;;;1379.78;999.90;;;13.80;99.90;;;;;;5073395;28;20246;-67
2022/04/13 02:59:42;;;;;;;1357.45;999.90;;;13.80;99.90;;;;;;5078164;28;20710;-67
2022/04/13 03:02:08;;;;;;;1333.97;999.90;;;13.70;99.90;;;;;;5094381;28;20181;-67
2022/04/13 03:04:34;;;;;;;1306.28;999.90;;;13.70;99.90;;;;;;5075715;28;20184;-67
2022/04/13 03:07:00;;;;;;;1267.25;999.90;;;13.70;99.90;;;;;;5059764;28;20183;-67
2022/04/13 03:09:26;;;;;;;1221.70;999.90;;;13.70;99.90;;;;;;5059203;28;20204;-70
2022/04/13 03:11:51;;;;;;;1182.68;999.90;;;13.80;99.90;;;;;;5052396;28;20561;-69
2022/04/13 03:14:18;;;;;;;1131.45;999.90;;;13.80;99.90;;;;;;5084750;28;20645;-68
2022/04/13 03:16:44;;;;;;;1089.75;999.90;;;13.80;99.90;;;;;;5075349;28;20204;-67
2022/04/13 03:19:09;;;;;;;1047.53;974.85;;;13.80;99.90;;;;;;5059026;28;20223;-67
2022/04/13 03:21:35;;;;;;;1001.90;934.58;;;13.90;99.90;;;;;;5075170;28;20195;-66
2022/04/13 03:24:01;;;;;;;977.22;912.67;;;13.90;99.90;;;;;;5093646;28;20181;-67
2022/04/13 03:26:26;;;;;;;967.42;903.92;;;14.00;99.90;;;;;;5076182;28;20576;-67
2022/04/13 03:28:53;;;;;;;953.58;891.42;;;14.10;99.90;;;;;;5058524;28;20212;-67
2022/04/13 03:31:19;;;;;;;928.95;869.28;;;14.10;99.90;;;;;;5076022;28;20277;-68
2022/04/13 03:33:44;;;;;;;913.83;855.88;;;14.10;99.90;;;;;;5093925;28;20289;-67
2022/04/13 03:36:10;;;;;;;892.28;835.78;;;14.20;99.90;;;;;;5075451;28;20184;-67
2022/04/13 03:38:36;;;;;;;876.92;822.53;;;14.10;99.90;;;;;;5092754;28;20184;-66
2022/04/13 03:41:04;;;;;;;904.97;847.47;;;14.10;99.90;;;;;;5094058;28;20188;-66
2022/04/13 03:43:30;;;;;;;1024.82;955.60;;;14.20;99.90;;;;;;5075416;28;20545;-67
2022/04/13 03:45:55;;;;;;;965.67;902.97;;;14.20;99.90;;;;;;5087240;28;20193;-66
2022/04/13 03:48:21;;;;;;;1054.43;981.30;;;14.20;99.90;;;;;;5087055;28;20350;-66
2022/04/13 03:50:47;;;;;;;1032.38;962.05;;;14.20;99.90;;;;;;5054660;28;20648;-66
2022/04/13 03:53:12;;;;;;;1097.90;999.90;;;14.30;99.90;;;;;;5087239;28;20189;-66
2022/04/13 03:55:38;;;;;;;1032.30;962.15;;;14.30;99.90;;;;;;5075614;28;20203;-67
2022/04/13 03:58:04;;;;;;;963.40;901.13;;;14.30;99.90;;;;;;5054467;28;1104654;-66
2022/04/13 04:00:30;;;;;;;908.50;851.03;;;14.30;99.90;;;;;;5094732;28;20185;-66
2022/04/13 04:02:56;;;;;;;865.35;813.22;;;14.30;99.90;;;;;;5087415;28;20194;-66
2022/04/13 04:05:21;;;;;;;838.00;788.83;;;14.30;99.90;;;;;;5065277;28;20226;-66
2022/04/13 04:07:48;;;;;;;809.30;763.33;;;14.40;99.90;;;;;;5076163;28;20677;-66
2022/04/13 04:10:14;;;;;;;782.55;739.13;;;14.40;99.90;;;;;;5093751;28;20255;-66
2022/04/13 04:12:41;;;;;;;865.05;813.65;;;14.40;99.90;;;;;;5076184;28;20220;-66
2022/04/13 04:15:09;;;;;;;880.65;827.70;;;14.40;99.90;;;;;;5058376;28;20264;-67
2022/04/13 04:17:35;;;;;;;869.42;817.33;;;14.40;99.90;;;;;;5075675;28;20200;-67
2022/04/13 04:20:02;;;;;;;831.15;783.38;;;14.40;99.90;;;;;;5094891;28;20184;-66
2022/04/13 04:22:28;;;;;;;752.75;712.55;;;14.40;99.90;;;;;;5074646;28;20192;-66
2022/04/13 04:24:54;;;;;;;653.10;620.67;;;14.40;99.90;;;;;;5075787;28;20226;-66
2022/04/13 04:27:20;;;;;;;539.92;515.28;;;14.40;99.90;;;;;;5093450;28;20267;-68
2022/04/13 04:29:46;;;;;;;345.50;329.98;;;14.40;99.90;;;;;;5093195;28;20284;-66
2022/04/13 04:32:11;;;;;;;204.82;195.65;;;14.40;99.90;;;;;;5087539;28;20192;-66
2022/04/13 04:34:37;;;;;;;155.45;148.02;;;14.40;99.90;;;;;;5045442;28;20188;-66
2022/04/13 04:37:03;;;;;;;207.07;197.43;;;14.40;99.90;;;;;;5075494;28;20615;-67
2022/04/13 04:39:29;;;;;;;351.50;335.75;;;14.30;99.90;;;;;;5066765;28;20185;-66
2022/04/13 04:41:54;;;;;;;467.80;445.58;;;14.30;99.90;;;;;;5075306;28;20179;-66
2022/04/13 04:44:20;;;;;;;645.28;609.03;;;14.20;99.90;;;;;;5094443;28;20219;-68
2022/04/13 04:46:46;;;;;;;779.22;730.65;;;14.10;99.90;;;;;;5057592;28;20181;-66
2022/04/13 04:49:11;;;;;;;898.97;839.50;;;14.00;99.90;;;;;;5074988;28;20231;-67
2022/04/13 04:51:38;;;;;;;991.85;921.45;;;13.90;99.90;;;;;;5075416;28;20188;-67
2022/04/13 04:54:04;;;;;;;1077.68;993.50;;;13.80;99.90;;;;;;5093524;28;20252;-67
2022/04/13 04:56:30;;;;;;;1155.93;999.90;;;13.70;99.90;;;;;;5075373;28;20181;-67
2022/04/13 04:58:57;;;;;;;1229.43;999.90;;;13.70;99.90;;;;;;5058539;28;20212;-66
2022/04/13 05:01:22;;;;;;;1296.95;999.90;;;13.70;99.90;;;;;;5093412;28;20173;-67
2022/04/13 05:03:51;;;;;;;1325.50;999.90;;;13.70;99.90;;;;;;5092581;28;20758;-67
2022/04/13 05:06:21;;;;;;;1482.53;999.90;;;13.60;99.90;;;;;;5091794;28;20669;-67
2022/04/13 05:08:51;;;;;;;1656.30;999.90;;;13.60;99.90;;;;;;5074600;28;20265;-67
2022/04/13 05:11:17;;;;;;;1847.90;999.90;;;13.70;99.90;;;;;;5092778;28;20184;-67
2022/04/13 05:13:46;;;;;;;1999.90;999.90;;;13.80;99.90;;;;;;5074761;28;20257;-67
2022/04/13 05:16:13;;;;;;;1999.90;999.90;;;13.80;99.90;;;;;;5075026;28;20557;-68
2022/04/13 05:18:39;;;;;;;1999.90;999.90;;;13.90;99.90;;;;;;5092828;28;20184;-67
2022/04/13 05:21:05;;;;;;;1999.90;999.90;;;13.90;99.90;;;;;;5074769;28;20196;-68
2022/04/13 05:23:30;;;;;;;1999.90;999.90;;;14.00;99.90;;;;;;5092204;28;20234;-67
2022/04/13 05:25:56;;;;;;;1999.90;999.90;;;14.00;99.90;;;;;;5092316;28;20644;-69
2022/04/13 05:28:22;;;;;;;1999.90;999.90;;;14.10;99.90;;;;;;5067075;28;20212;-68
2022/04/13 05:30:47;;;;;;;1999.90;999.90;;;14.20;99.90;;;;;;5092577;28;20185;-67
2022/04/13 05:33:13;;;;;;;1999.90;999.90;;;14.20;99.90;;;;;;5041292;28;20184;-67
2022/04/13 05:35:40;;;;;;;1924.20;999.90;;;14.30;99.90;;;;;;5074568;28;20552;-67
2022/04/13 05:38:06;;;;;;;1999.90;999.90;;;14.40;99.90;;;;;;5074721;28;20330;-67
2022/04/13 05:40:32;;;;;;;1999.90;999.90;;;14.50;99.90;;;;;;5074253;28;20181;-68
2022/04/13 05:42:58;;;;;;;1999.90;999.90;;;14.60;99.90;;;;;;5062261;28;20212;-67
2022/04/13 05:45:24;;;;;;;1999.90;999.90;;;14.60;99.90;;;;;;5074789;28;20185;-68
2022/04/13 05:47:51;;;;;;;1999.90;999.90;;;14.70;99.90;;;;;;5091979;28;20208;-67
2022/04/13 05:50:17;;;;;;;1494.65;899.75;;;14.80;99.90;;;;;;5074623;28;20690;-67
2022/04/13 05:52:44;;;;;;;1376.45;999.90;;;14.90;99.90;;;;;;5073303;28;20189;-67
2022/04/13 05:55:10;;;;;;;1776.38;999.90;;;15.00;99.90;;;;;;5074152;28;20190;-67
2022/04/13 05:57:35;;;;;;;1999.75;999.90;;;15.00;99.90;;;;;;5074302;28;20189;-67
2022/04/13 06:00:06;;;;;;;1909.63;999.90;;;15.20;99.90;;;;;;5074594;28;20219;-68
2022/04/13 06:02:33;;;;;;;1797.68;999.90;;;15.20;99.90;;;;;;5092202;28;20184;-68
2022/04/13 06:04:59;;;;;;;1715.25;999.90;;;15.30;99.90;;;;;;5057696;28;20184;-68
2022/04/13 06:07:25;;;;;;;1636.28;999.90;;;15.30;99.90;;;;;;5092436;28;20176;-68
2022/04/13 06:09:50;;;;;;;1564.55;999.90;;;15.40;99.90;;;;;;5082726;28;20211;-67
2022/04/13 06:12:22;;;;;;;1483.95;999.90;;;15.40;99.90;;;;;;5091953;28;20185;-67
2022/04/13 06:14:49;;;;;;;1425.63;999.90;;;15.30;99.90;;;;;;5074297;28;20177;-67
2022/04/13 06:17:14;;;;;;;1388.28;999.90;;;15.30;99.90;;;;;;5063760;28;20189;-67
2022/04/13 06:19:40;;;;;;;1365.03;999.90;;;15.40;99.90;;;;;;5073046;28;20197;-67
2022/04/13 06:22:05;;;;;;;1357.05;999.90;;;15.50;99.90;;;;;;5057382;28;20193;-67
2022/04/13 06:24:31;;;;;;;1310.85;999.90;;;15.50;99.90;;;;;;5074098;28;20188;-68
2022/04/13 06:26:57;;;;;;;1291.45;999.90;;;15.60;99.90;;;;;;5074269;28;20189;-67
2022/04/13 06:29:23;;;;;;;1261.80;999.90;;;15.70;99.90;;;;;;5092405;28;20215;-68
2022/04/13 06:31:48;;;;;;;1234.80;999.90;;;15.80;99.90;;;;;;5057082;28;20193;-67
2022/04/13 06:34:16;;;;;;;1191.18;999.90;;;15.90;99.90;;;;;;5057139;28;20222;-67
2022/04/13 06:36:42;;;;;;;1149.75;999.90;;;16.10;99.90;;;;;;5074182;28;20188;-67
2022/04/13 06:39:07;;;;;;;1121.22;999.90;;;16.20;99.90;;;;;;5057738;28;20189;-67
2022/04/13 06:41:33;;;;;;;1075.47;995.88;;;16.20;99.90;;;;;;5091832;28;20179;-67
2022/04/13 06:43:59;;;;;;;1038.45;963.78;;;16.30;99.90;;;;;;5074059;28;20659;-67
2022/04/13 06:46:25;;;;;;;1006.08;936.08;;;16.40;99.90;;;;;;5073361;28;20188;-67
2022/04/13 06:48:50;;;;;;;981.55;914.05;;;16.50;99.90;;;;;;5056605;28;20689;-69
2022/04/13 06:51:16;;;;;;;953.00;889.03;;;16.80;99.90;;;;;;5074298;28;20189;-70
2022/04/13 06:53:42;;;;;;;920.03;859.50;;;16.90;99.90;;;;;;5074142;28;20196;-69
2022/04/13 06:56:08;;;;;;;908.65;849.47;;;17.10;99.90;;;;;;5058473;28;20393;-66
2022/04/13 06:58:33;;;;;;;911.90;852.85;;;17.10;99.90;;;;;;5059476;28;20208;-70
2022/04/13 07:00:59;;;;;;;908.28;849.28;;;17.00;99.90;;;;;;5075402;28;20224;-70
2022/04/13 07:03:25;;;;;;;911.10;851.85;;;16.70;99.90;;;;;;5078337;28;20268;-70
2022/04/13 07:05:51;;;;;;;912.97;853.85;;;16.50;99.90;;;;;;5073450;28;20177;-67
2022/04/13 07:08:17;;;;;;;914.60;855.67;;;16.40;99.90;;;;;;5064690;28;20245;-66
2022/04/13 07:10:42;;;;;;;895.05;838.15;;;16.60;99.90;;;;;;5095066;28;20188;-67
2022/04/13 07:13:09;;;;;;;900.75;842.75;;;16.50;99.90;;;;;;5060788;28;20188;-68
2022/04/13 07:15:35;;;;;;;892.58;835.15;;;16.50;99.90;;;;;;5067369;28;20178;-68
2022/04/13 07:18:00;;;;;;;885.90;829.95;;;16.20;99.90;;;;;;5067765;28;20258;-69
2022/04/13 07:20:26;;;;;;;870.30;815.63;;;16.10;99.90;;;;;;5060025;28;20218;-68
2022/04/13 07:22:53;;;;;;;870.78;816.45;;;16.00;99.90;;;;;;5095393;28;20184;-68
2022/04/13 07:25:20;;;;;;;879.53;824.33;;;16.00;99.90;;;;;;5093807;28;20238;-70
2022/04/13 07:27:47;;;;;;;860.47;807.08;;;16.10;99.90;;;;;;5087269;28;20224;-76
2022/04/13 07:30:14;;;;;;;845.28;793.10;;;16.10;99.90;;;;;;5066676;28;20641;-69
2022/04/13 07:32:42;;;;;;;842.30;791.58;;;16.10;99.90;;;;;;5095716;28;20184;-69
2022/04/13 07:35:08;;;;;;;833.72;783.05;;;16.10;99.90;;;;;;5054059;28;20189;-68
2022/04/13 07:37:34;;;;;;;836.10;785.85;;;16.10;99.90;;;;;;5071082;28;20185;-70
2022/04/13 07:40:00;;;;;;;831.03;781.10;;;16.10;99.90;;;;;;5076626;28;20544;-70
2022/04/13 07:42:27;;;;;;;822.30;773.30;;;16.20;99.90;;;;;;5095605;28;20180;-70
2022/04/13 07:44:53;;;;;;;823.95;775.20;;;16.20;99.90;;;;;;5094382;28;20303;-70
2022/04/13 07:47:21;;;;;;;820.90;771.90;;;16.20;99.90;;;;;;5076438;28;20207;-70
2022/04/13 07:49:47;;;;;;;826.30;777.65;;;16.10;99.90;;;;;;5066593;28;20669;-70
2022/04/13 07:52:14;;;;;;;819.72;771.25;;;16.10;99.90;;;;;;5029732;28;20284;-71
2022/04/13 07:54:40;;;;;;;813.70;766.15;;;16.20;99.90;;;;;;5067708;28;20549;-69
2022/04/13 07:57:06;;;;;;;804.25;757.38;;;16.30;99.90;;;;;;5092811;28;20192;-67
2022/04/13 07:59:31;;;;;;;794.30;749.03;;;16.30;99.90;;;;;;5059058;28;20203;-70
2022/04/13 08:01:57;;;;;;;781.88;737.60;;;16.40;99.90;;;;;;5076326;28;20597;-70
2022/04/13 08:04:23;;;;;;;784.53;740.15;;;16.50;99.90;;;;;;5057830;28;20189;-70
2022/04/13 08:06:49;;;;;;;771.85;728.47;;;16.50;99.90;;;;;;5087442;28;20195;-74
2022/04/13 08:09:15;;;;;;;768.30;725.63;;;16.40;99.90;;;;;;5082465;28;20212;-71
2022/04/13 08:11:41;;;;;;;768.17;726.17;;;16.40;99.90;;;;;;5093027;28;20241;-70
2022/04/13 08:14:07;;;;;;;769.67;726.85;;;16.50;99.90;;;;;;5093968;28;20239;-70
2022/04/13 08:16:33;;;;;;;768.08;725.72;;;16.50;99.90;;;;;;5093163;28;20204;-71
2022/04/13 08:18:59;;;;;;;764.90;723.17;;;16.50;99.90;;;;;;5071565;28;20242;-68
2022/04/13 08:21:25;;;;;;;764.65;722.83;;;16.50;99.90;;;;;;5061073;28;20188;-70
2022/04/13 08:23:51;;;;;;;766.67;724.53;;;16.40;99.90;;;;;;5075980;28;20629;-70
2022/04/13 08:26:17;;;;;;;762.05;720.55;;;16.40;99.90;;;;;;5042611;28;20184;-69
2022/04/13 08:28:43;;;;;;;776.28;733.33;;;16.30;99.90;;;;;;5058949;28;20568;-69
2022/04/13 08:31:09;;;;;;;778.53;735.25;;;16.30;99.90;;;;;;5093368;28;20628;-69
2022/04/13 08:33:36;;;;;;;781.35;738.28;;;16.20;99.90;;;;;;5093813;28;20249;-70
2022/04/13 08:36:02;;;;;;;784.15;740.28;;;16.20;99.90;;;;;;5059068;28;20180;-69
2022/04/13 08:38:28;;;;;;;792.85;748.40;;;16.20;99.90;;;;;;5075605;28;20284;-68
2022/04/13 08:41:16;;;;;;;810.33;764.05;;;16.20;99.90;;;;;;5092919;28;20267;-67
2022/04/13 08:43:51;;;;;;;808.83;762.88;;;16.10;99.90;;;;;;5075587;28;20275;-68
2022/04/13 08:46:27;;;;;;;825.25;777.67;;;16.00;99.90;;;;;;5074645;28;20226;-67
2022/04/13 08:48:56;;;;;;;838.78;789.50;;;16.00;99.90;;;;;;5092467;28;20204;-68
2022/04/13 08:51:23;;;;;;;806.25;760.38;;;16.10;99.90;;;;;;5075758;28;20611;-67
2022/04/13 08:54:19;;;;;;;727.00;688.72;;;16.30;99.90;;;;;;5074321;28;20195;-68
2022/04/13 08:56:49;;;;;;;718.95;681.33;;;16.50;99.90;;;;;;5075123;28;20196;-67
2022/04/13 08:59:29;;;;;;;612.30;582.30;;;16.80;99.90;;;;;;5073758;28;20200;-68
2022/04/13 09:02:14;;;;;;;501.45;477.73;;;17.20;99.90;;;;;;5093159;28;20258;-68
2022/04/13 09:04:43;;;;;;;408.42;389.73;;;17.40;99.90;;;;;;5093239;28;20656;-68
2022/04/13 09:07:13;;;;;;;317.77;303.60;;;17.40;99.90;;;;;;5086708;28;20173;-67
2022/04/13 09:09:46;;;;;;;247.15;236.05;;;17.30;99.90;;;;;;5081565;28;20204;-68
2022/04/13 09:12:14;;;;;;;203.27;193.88;;;17.10;99.90;;;;;;5092583;28;20181;-68
2022/04/13 09:14:40;;;;;;;207.50;197.88;;;17.10;99.90;;;;;;5093117;28;20181;-68
2022/04/13 09:17:07;;;;;;;203.25;193.77;;;17.10;99.90;;;;;;5091585;28;20730;-68
2022/04/13 09:19:33;;;;;;;228.98;218.95;;;17.30;99.90;;;;;;5074748;28;20189;-68
2022/04/13 09:21:59;;;;;;;261.80;250.07;;;17.30;99.90;;;;;;5092032;28;20184;-68
2022/04/13 09:24:31;;;;;;;329.95;314.65;;;17.30;99.90;;;;;;5074061;28;20414;-70
2022/04/13 09:26:59;;;;;;;401.67;383.55;;;17.30;99.90;;;;;;5092757;28;20192;-67
2022/04/13 09:29:25;;;;;;;488.42;464.45;;;17.10;99.90;;;;;;5073299;28;20299;-67
2022/04/13 09:31:51;;;;;;;547.35;519.13;;;17.20;99.90;;;;;;5074009;28;20277;-68
2022/04/13 09:34:17;;;;;;;643.13;607.45;;;17.20;99.90;;;;;;5092580;28;20210;-68
2022/04/13 09:36:43;;;;;;;727.85;685.50;;;17.30;99.90;;;;;;5074336;28;20184;-68
2022/04/13 09:39:09;;;;;;;928.35;866.70;;;17.20;99.90;;;;;;5057162;28;20555;-68
2022/04/13 09:41:36;;;;;;;989.53;920.22;;;17.30;99.90;;;;;;5074552;28;20184;-68
2022/04/13 09:44:13;;;;;;;1055.13;977.35;;;17.30;99.90;;;;;;5074004;28;20676;-69
2022/04/13 09:46:40;;;;;;;1109.13;999.90;;;17.20;99.90;;;;;;5074718;28;20748;-68
2022/04/13 09:49:12;;;;;;;1143.07;999.90;;;17.10;99.90;;;;;;5073371;28;20227;-69
2022/04/13 09:51:43;;;;;;;1179.10;999.90;;;17.00;99.90;;;;;;5055190;28;20180;-69
2022/04/13 09:54:10;;;;;;;1210.00;999.90;;;16.90;99.90;;;;;;5074849;28;20180;-69
2022/04/13 09:56:47;;;;;;;1224.13;999.90;;;17.00;99.90;;;;;;5091617;28;20193;-69
2022/04/13 09:59:33;;;;;;;1260.43;999.90;;;17.50;99.90;;;;;;5057610;28;20653;-69
2022/04/13 10:01:59;;;;;;;1362.78;999.90;;;17.60;99.90;;;;;;5057327;28;20240;-69
2022/04/13 10:04:26;;;;;;;1911.20;999.90;;;17.60;99.90;;;;;;5092662;28;20550;-69
2022/04/13 10:06:53;;;;;;;1999.90;999.90;;;17.40;99.90;;;;;;5091699;28;20176;-68
2022/04/13 10:09:19;;;;;;;1999.90;999.90;;;17.10;99.90;;;;;;5074265;28;20201;-69
2022/04/13 10:12:17;;;;;;;1999.90;999.90;;;16.80;99.90;;;;;;5091544;28;20275;-69
2022/04/13 10:14:43;;;;;;;1999.90;999.90;;;16.70;99.90;;;;;;5028447;28;20198;-69
2022/04/13 10:17:16;;;;;;;1999.90;999.90;;;16.60;99.90;;;;;;5091988;28;20211;-70
2022/04/13 10:19:43;;;;;;;1999.90;999.90;;;16.60;99.90;;;;;;5092070;28;20181;-70
2022/04/13 10:22:09;;;;;;;1999.90;999.90;;;16.60;99.90;;;;;;5080375;28;20212;-69
2022/04/13 10:24:37;;;;;;;1999.90;999.90;;;16.60;99.90;;;;;;5065096;28;20188;-72
2022/04/13 10:27:08;;;;;;;1999.90;999.90;;;16.50;99.90;;;;;;5093892;28;20184;-69
2022/04/13 10:29:40;;;;;;;1999.90;999.90;;;16.50;99.90;;;;;;5095215;28;20216;-69
2022/04/13 10:32:11;;;;;;;1850.28;999.90;;;16.50;99.90;;;;;;5077031;28;20224;-69
2022/04/13 10:34:39;;;;;;;1999.90;999.90;;;16.60;99.90;;;;;;5096415;28;20184;-69
2022/04/13 10:37:06;;;;;;;1999.90;999.90;;;16.50;99.90;;;;;;5076622;28;20318;-69
2022/04/13 10:39:32;;;;;;;1999.90;999.90;;;16.30;99.90;;;;;;5077828;28;20638;-69
2022/04/13 10:41:58;;;;;;;1999.90;999.90;;;16.30;99.90;;;;;;5072961;28;20208;-68
2022/04/13 10:44:48;;;;;;;1805.25;999.90;;;16.40;99.90;;;;;;5069340;28;20181;-69
2022/04/13 10:47:18;;;;;;;1743.78;999.90;;;16.40;99.90;;;;;;5077603;28;20185;-68
2022/04/13 10:50:03;;;;;;;1355.00;999.90;;;16.40;99.90;;;;;;5077417;28;20220;-69
2022/04/13 10:52:54;;;;;;;1084.30;998.47;;;16.40;99.90;;;;;;5076591;28;20206;-69
2022/04/13 10:55:21;;;;;;;549.25;524.90;;;16.40;99.90;;;;;;5095659;28;20185;-68
2022/04/13 10:57:52;;;;;;;995.08;929.95;;;16.50;99.90;;;;;;5095674;28;20185;-69
2022/04/13 11:00:19;;;;;;;1047.40;976.20;;;16.40;99.90;;;;;;5095556;28;20185;-69
2022/04/13 11:03:05;;;;;;;957.45;895.50;;;16.40;99.90;;;;;;5095161;28;20177;-69
2022/04/13 11:05:32;;;;;;;324.55;308.80;;;16.40;99.90;;;;;;5077136;28;20296;-69
2022/04/13 11:08:14;;;;;;;1372.60;999.90;;;16.60;99.90;;;;;;5050925;28;20221;-69
2022/04/13 11:10:42;;;;;;;1999.90;999.90;;;16.60;99.90;;;;;;5071035;28;20204;-69
2022/04/13 11:13:08;;;;;;;1999.90;999.90;;;16.60;99.90;;;;;;5077216;28;20228;-69
2022/04/13 11:15:38;;;;;;;1999.90;999.90;;;16.50;99.90;;;;;;5077153;28;20553;-69
2022/04/13 11:18:08;;;;;;;1999.90;999.90;;;16.50;99.90;;;;;;5095245;28;20180;-69
2022/04/13 11:20:34;;;;;;;958.45;888.85;;;16.40;99.90;;;;;;5094836;28;20185;-69
2022/04/13 11:23:09;;;;;;;531.72;507.98;;;16.50;99.90;;;;;;5077649;28;20547;-71
2022/04/13 11:25:45;;;;;;;793.95;748.97;;;16.50;99.90;;;;;;5077114;28;20191;-68
2022/04/13 11:28:11;;;;;;;964.78;903.47;;;16.50;99.90;;;;;;5077157;28;20247;-69
2022/04/13 11:30:59;;;;;;;1043.38;972.75;;;16.80;99.90;;;;;;5076821;28;20176;-69
2022/04/13 11:33:39;;;;;;;962.03;900.13;;;16.90;99.90;;;;;;5065210;28;20196;-70
2022/04/13 11:36:05;;;;;;;667.50;633.97;;;17.00;99.90;;;;;;5094745;28;20629;-72
2022/04/13 11:38:36;;;;;;;121.05;115.22;;;17.20;99.90;;;;;;5076927;28;20192;-69
2022/04/13 11:41:07;;;;;;;357.02;341.88;;;17.70;99.90;;;;;;5061436;28;20184;-70
2022/04/13 11:43:34;;;;;;;938.63;877.80;;;17.60;99.90;;;;;;5075818;28;20176;-69
2022/04/13 11:46:00;;;;;;;1175.80;999.90;;;17.40;99.90;;;;;;5093830;28;20586;-69
2022/04/13 11:48:36;;;;;;;1327.20;999.90;;;17.50;99.90;;;;;;5075490;28;20739;-69
2022/04/13 11:51:25;;;;;;;1487.72;999.90;;;17.70;99.90;;;;;;5094845;28;20176;-69
2022/04/13 11:53:55;;;;;;;1544.57;999.90;;;17.40;99.90;;;;;;5094774;28;20173;-69
2022/04/13 11:56:32;;;;;;;1657.93;999.90;;;17.60;99.90;;;;;;5076065;28;20646;-71
2022/04/13 11:58:58;;;;;;;1786.80;999.90;;;17.50;99.90;;;;;;5093499;28;20203;-69
2022/04/13 12:01:25;;;;;;;1853.82;999.90;;;17.20;99.90;;;;;;5094465;28;20192;-69
2022/04/13 12:03:52;;;;;;;1924.38;999.90;;;17.20;99.90;;;;;;5043761;28;20192;-69
2022/04/13 12:06:25;;;;;;;1999.90;999.90;;;17.30;99.90;;;;;;5059799;28;20279;-69